Terminal Aerodrome Forecast
Issued by NWS

Home | Current Version | Previous Version | Text Only | Print | Product List | Glossary On
Versions: 1 2 3 4 5 6 7 8 9 10 11 12 13 14 15 16 17 18 19 20 21 22
275
FTUS43 KDVN 200532
TAFBRL
TAF
KBRL 200532Z 2006/2106 14007KT P6SM BKN200
     FM201200 14009KT 6SM BR BKN050
     FM201700 15013G20KT P6SM BKN040
     FM202300 16011KT 4SM SHRA VCTS BKN035CB
     FM210300 21009KT 5SM BR BKN025=

USA.gov is the U.S. government's official web portal to all federal, state and local government web resources and services.